createdAt,value
2022-10-18T00:02:19.275Z,96446.88
2022-10-18T00:04:44.289Z,96419.81
2022-10-18T00:07:10.644Z,96440.98
2022-10-18T00:09:36.984Z,96440.14
2022-10-18T00:12:03.329Z,96436.27
2022-10-18T00:14:29.667Z,96436.27
2022-10-18T00:16:56.021Z,96431.56
2022-10-18T00:19:25.888Z,96435.52
2022-10-18T00:21:48.711Z,96427.77
2022-10-18T00:24:15.050Z,96424.80
2022-10-18T00:26:41.417Z,96421.77
2022-10-18T00:29:07.765Z,96417.14
2022-10-18T00:31:34.109Z,96415.77
2022-10-18T00:34:00.461Z,96411.52
2022-10-18T00:36:26.796Z,96402.48
2022-10-18T00:38:53.140Z,96400.85
2022-10-18T00:41:19.478Z,96402.48
2022-10-18T00:43:45.813Z,96406.81
2022-10-18T00:46:12.162Z,96399.18
2022-10-18T00:48:38.520Z,96397.44
2022-10-18T00:51:04.867Z,96402.22
2022-10-18T00:53:31.201Z,96403.13
2022-10-18T00:55:57.550Z,96403.13
2022-10-18T00:58:23.879Z,96382.20
2022-10-18T01:00:50.230Z,96382.20
2022-10-18T01:03:16.562Z,96377.80
2022-10-18T01:05:42.937Z,96377.80
2022-10-18T01:08:09.268Z,96376.20
2022-10-18T01:10:35.646Z,96376.20
2022-10-18T01:13:01.980Z,96376.58
2022-10-18T01:15:28.332Z,96389.12
2022-10-18T01:17:54.666Z,96389.12
2022-10-18T01:20:21.002Z,96383.50
2022-10-18T01:22:47.340Z,96380.54
2022-10-18T01:25:13.726Z,96383.23
2022-10-18T01:27:40.028Z,96376.40
2022-10-18T01:30:06.364Z,96376.40
2022-10-18T01:32:32.712Z,96373.09
2022-10-18T01:34:59.047Z,96379.89
2022-10-18T01:37:25.393Z,96376.50
2022-10-18T01:39:51.734Z,96373.55
2022-10-18T01:42:18.073Z,96359.45
2022-10-18T01:44:44.438Z,96359.45
2022-10-18T01:47:10.777Z,96377.88
2022-10-18T01:49:37.120Z,96377.03
2022-10-18T01:52:03.556Z,96376.20
2022-10-18T01:54:29.835Z,96369.75
2022-10-18T01:56:56.180Z,96375.40
2022-10-18T01:59:22.525Z,96364.70
2022-10-18T02:01:48.870Z,96359.72
2022-10-18T02:04:15.224Z,96373.80
2022-10-18T02:06:41.552Z,96368.64
2022-10-18T02:09:07.901Z,96363.67
2022-10-18T02:11:34.232Z,96366.25
2022-10-18T02:14:00.579Z,96361.55
2022-10-18T02:16:26.918Z,96349.66
2022-10-18T02:18:53.266Z,96356.11
2022-10-18T02:21:19.596Z,96357.05
2022-10-18T02:23:45.957Z,96361.38
2022-10-18T02:26:12.328Z,96356.30
2022-10-18T02:28:38.682Z,96352.34
2022-10-18T02:31:05.022Z,96343.95
2022-10-18T02:33:31.391Z,96345.25
2022-10-18T02:35:57.728Z,96345.70
2022-10-18T02:38:24.074Z,96347.45
2022-10-18T02:40:50.415Z,96355.19
2022-10-18T02:43:16.757Z,96354.80
2022-10-18T02:45:43.134Z,96352.33
2022-10-18T02:48:09.472Z,96359.62
2022-10-18T02:50:35.805Z,96361.36
2022-10-18T02:53:02.181Z,96364.02
2022-10-18T02:57:54.851Z,96362.72
2022-10-18T03:00:21.196Z,96365.87
2022-10-18T03:02:47.549Z,96362.00
2022-10-18T03:05:13.886Z,96362.45
2022-10-18T03:07:40.237Z,96365.59
2022-10-18T03:10:06.577Z,96365.03
2022-10-18T03:12:32.931Z,96365.67
2022-10-18T03:14:59.263Z,96366.95
2022-10-18T03:17:25.616Z,96356.29
2022-10-18T03:19:51.944Z,96356.64
2022-10-18T03:22:18.352Z,96364.38
2022-10-18T03:24:44.627Z,96357.58
2022-10-18T03:27:10.965Z,96350.75
2022-10-18T03:29:37.334Z,96353.33
2022-10-18T03:32:03.682Z,96351.59
2022-10-18T03:34:30.025Z,96344.38
2022-10-18T03:36:56.376Z,96350.94
2022-10-18T03:39:22.722Z,96355.15
2022-10-18T03:41:49.075Z,96353.86
2022-10-18T03:44:15.419Z,96357.45
2022-10-18T03:46:41.811Z,96357.84
2022-10-18T03:49:08.139Z,96362.16
2022-10-18T03:51:34.482Z,96365.19
2022-10-18T03:54:00.819Z,96366.03
2022-10-18T03:56:27.160Z,96367.42
2022-10-18T03:58:53.507Z,96367.42
2022-10-18T04:01:19.927Z,96370.35
2022-10-18T04:03:46.224Z,96366.48
2022-10-18T04:06:13.763Z,96373.38
2022-10-18T04:08:38.914Z,96372.20
2022-10-18T04:11:05.261Z,96378.19
2022-10-18T04:13:31.614Z,96374.33
2022-10-18T04:15:57.982Z,96374.78
2022-10-18T04:18:24.322Z,96372.20
2022-10-18T04:20:50.659Z,96369.62
2022-10-18T04:23:16.994Z,96370.08
2022-10-18T04:28:09.688Z,96367.42
2022-10-18T04:30:36.041Z,96360.32
2022-10-18T04:33:02.389Z,96370.25
2022-10-18T04:35:28.738Z,96364.08
2022-10-18T04:37:55.073Z,96367.60
2022-10-18T04:40:21.421Z,96364.02
2022-10-18T04:42:47.789Z,96362.54
2022-10-18T04:45:14.146Z,96357.45
2022-10-18T04:47:40.486Z,96360.88
2022-10-18T04:50:06.831Z,96355.71
2022-10-18T04:52:33.171Z,96355.53
2022-10-18T04:54:59.526Z,96350.30
2022-10-18T04:57:25.858Z,96352.70
2022-10-18T04:59:52.202Z,96352.59
2022-10-18T05:02:20.776Z,96354.08
2022-10-18T05:04:47.130Z,96343.50
2022-10-18T05:07:13.480Z,96342.02
2022-10-18T05:09:39.825Z,96341.56
2022-10-18T05:12:06.168Z,96340.09
2022-10-18T05:14:32.515Z,96342.67
2022-10-18T05:16:58.879Z,96342.48
2022-10-18T05:19:25.235Z,96342.10
2022-10-18T05:21:51.575Z,96343.95
2022-10-18T05:24:17.980Z,96342.30
2022-10-18T05:26:44.314Z,96344.42
2022-10-18T05:29:10.750Z,96351.88
2022-10-18T05:31:36.996Z,96347.09
2022-10-18T05:34:03.332Z,96344.31
2022-10-18T05:36:29.662Z,96353.34
2022-10-18T05:38:57.579Z,96349.22
2022-10-18T05:41:22.349Z,96351.80
2022-10-18T05:43:48.691Z,96347.92
2022-10-18T05:46:15.842Z,96347.82
2022-10-18T05:48:41.372Z,96355.48
2022-10-18T05:51:07.717Z,96357.95
2022-10-18T05:53:38.017Z,96354.55
2022-10-18T05:56:00.403Z,96354.57
2022-10-18T05:58:26.862Z,96355.75
2022-10-18T06:00:53.190Z,96357.83
2022-10-18T06:03:19.548Z,96359.56
2022-10-18T06:05:45.893Z,96358.61
2022-10-18T06:08:12.239Z,96355.84
2022-10-18T06:10:38.583Z,96360.55
2022-10-18T06:13:04.940Z,96353.26
2022-10-18T06:15:31.278Z,96363.96
2022-10-18T06:17:57.632Z,96363.60
2022-10-18T06:20:24.000Z,96368.74
2022-10-18T06:22:50.359Z,96363.89
2022-10-18T06:25:16.700Z,96361.38
2022-10-18T06:27:43.074Z,96368.74
2022-10-18T06:30:09.373Z,96363.69
2022-10-18T06:32:35.721Z,96367.38
2022-10-18T06:35:02.064Z,96361.30
2022-10-18T06:37:28.463Z,96354.92
2022-10-18T06:39:54.752Z,96356.22
2022-10-18T06:42:22.673Z,96349.58
2022-10-18T06:44:47.467Z,96355.80
2022-10-18T06:47:13.808Z,96349.31
2022-10-18T06:49:40.155Z,96356.87
2022-10-18T06:52:06.505Z,96348.89
2022-10-18T06:54:32.859Z,96347.00
2022-10-18T06:56:59.199Z,96343.50
2022-10-18T06:59:28.911Z,96342.52
2022-10-18T07:01:51.918Z,96340.66
2022-10-18T07:04:18.263Z,96342.14
2022-10-18T07:06:44.610Z,96346.47
2022-10-18T07:09:11.068Z,96336.15
2022-10-18T07:11:37.405Z,96339.94
2022-10-18T07:14:03.742Z,96344.65
2022-10-18T07:16:30.092Z,96339.67
2022-10-18T07:18:56.444Z,96345.19
2022-10-18T07:21:22.789Z,96341.23
2022-10-18T07:23:49.135Z,96340.97
2022-10-18T07:26:15.490Z,96341.23
2022-10-18T07:28:41.859Z,96337.63
2022-10-18T07:31:08.297Z,96342.79
2022-10-18T07:33:34.641Z,96337.44
2022-10-18T07:36:00.990Z,96329.13
2022-10-18T07:38:27.343Z,96334.13
2022-10-18T07:40:53.706Z,96325.81
2022-10-18T07:43:20.049Z,96326.35
2022-10-18T07:45:46.397Z,96322.86
2022-10-18T07:48:13.712Z,96322.78
2022-10-18T07:50:39.102Z,96317.50
2022-10-18T07:53:05.472Z,96314.08
2022-10-18T07:55:31.826Z,96311.09
2022-10-18T07:57:58.176Z,96312.58
2022-10-18T08:00:25.527Z,96301.23
2022-10-18T08:02:50.906Z,96301.83
2022-10-18T08:05:17.254Z,96297.66
2022-10-18T08:07:43.589Z,96294.96
2022-10-18T08:10:09.953Z,96296.62
2022-10-18T08:12:36.299Z,96294.19
2022-10-18T08:15:02.649Z,96287.95
2022-10-18T08:17:29.055Z,96290.48
2022-10-18T08:20:11.928Z,96260.52
2022-10-18T08:22:21.759Z,96276.27
2022-10-18T08:24:48.105Z,96275.84
2022-10-18T08:27:14.466Z,96269.34
2022-10-18T08:29:41.998Z,96248.23
2022-10-18T08:32:08.255Z,96265.61
2022-10-18T08:34:34.652Z,96262.06
2022-10-18T08:37:00.941Z,96262.66
2022-10-18T08:39:27.290Z,96255.88
2022-10-18T08:41:53.634Z,96255.33
2022-10-18T08:44:19.981Z,96250.80
2022-10-18T08:46:46.313Z,96243.56
2022-10-18T08:49:12.662Z,96238.65
2022-10-18T08:51:39.004Z,96234.52
2022-10-18T08:54:05.351Z,96233.70
2022-10-18T08:56:31.704Z,96231.35
2022-10-18T08:58:58.053Z,96224.31
2022-10-18T09:01:24.461Z,96224.57
2022-10-18T09:03:50.860Z,96226.00
2022-10-18T09:06:19.854Z,96217.78
2022-10-18T09:08:43.493Z,96216.61
2022-10-18T09:11:09.837Z,96207.56
2022-10-18T09:13:36.186Z,96207.86
2022-10-18T09:16:02.532Z,96210.31
2022-10-18T09:18:28.874Z,96208.91
2022-10-18T09:20:55.217Z,96210.20
2022-10-18T09:23:21.573Z,96206.06
2022-10-18T09:25:50.184Z,96204.73
2022-10-18T09:28:16.562Z,96201.11
2022-10-18T09:30:42.866Z,96195.06
2022-10-18T09:33:09.209Z,96193.77
2022-10-18T09:35:35.563Z,96183.00
2022-10-18T09:38:01.903Z,96187.34
2022-10-18T09:40:28.266Z,96188.06
2022-10-18T09:42:54.599Z,96187.47
2022-10-18T09:45:20.947Z,96186.47
2022-10-18T09:47:47.300Z,96187.34
2022-10-18T09:50:13.663Z,96181.00
2022-10-18T09:52:40.008Z,96181.47
2022-10-18T09:55:06.390Z,96176.08
2022-10-18T09:57:33.126Z,96161.28
2022-10-18T09:59:59.147Z,96162.20
2022-10-18T10:02:25.520Z,96162.20
2022-10-18T10:04:51.834Z,96151.67
2022-10-18T10:07:18.171Z,96151.67
2022-10-18T10:09:44.509Z,96145.25
2022-10-18T10:12:10.847Z,96127.14
2022-10-18T10:14:37.248Z,96127.14
2022-10-18T10:17:03.570Z,96138.29
2022-10-18T10:19:30.922Z,96115.04
2022-10-18T10:21:57.252Z,96125.17
2022-10-18T10:24:25.103Z,96125.17
2022-10-18T10:26:49.939Z,96117.33
2022-10-18T10:29:17.730Z,96111.08
2022-10-18T10:31:42.662Z,96101.64
2022-10-18T10:34:09.015Z,96079.77
2022-10-18T10:36:35.344Z,96089.48
2022-10-18T10:39:01.696Z,96086.95
2022-10-18T10:41:28.096Z,96086.95
2022-10-18T10:43:54.399Z,96081.78
2022-10-18T10:46:20.738Z,96044.75
2022-10-18T10:48:47.089Z,96044.75
2022-10-18T10:51:13.433Z,96069.50
2022-10-18T10:53:39.785Z,96058.81
2022-10-18T10:56:06.117Z,96021.63
2022-10-18T10:58:32.474Z,96047.22
2022-10-18T11:00:58.810Z,96047.22
2022-10-18T11:03:29.811Z,96039.47
2022-10-18T11:05:51.488Z,96025.27
2022-10-18T11:08:23.073Z,96025.27
2022-10-18T11:10:44.168Z,96037.00
2022-10-18T11:13:10.504Z,96028.03
2022-10-18T11:15:36.849Z,96027.87
2022-10-18T11:18:03.190Z,96024.81
2022-10-18T11:20:29.531Z,96018.30
2022-10-18T11:22:55.878Z,95994.75
2022-10-18T11:25:22.247Z,96004.66
2022-10-18T11:27:48.607Z,96004.66
2022-10-18T11:30:14.921Z,95990.45
2022-10-18T11:32:41.273Z,95990.45
2022-10-18T11:35:07.604Z,95987.70
2022-10-18T11:37:36.131Z,95980.34
2022-10-18T11:40:00.321Z,95982.00
2022-10-18T11:42:26.654Z,95973.70
2022-10-18T11:44:52.996Z,95957.97
2022-10-18T11:47:19.348Z,95962.23
2022-10-18T11:49:45.673Z,95956.95
2022-10-18T11:52:12.023Z,95951.45
2022-10-18T11:57:04.748Z,95949.11
2022-10-18T11:59:31.096Z,95947.30
2022-10-18T12:01:57.442Z,95941.13
2022-10-18T12:04:23.792Z,95933.50
2022-10-18T12:06:50.214Z,95931.97
2022-10-18T12:09:16.573Z,95932.43
2022-10-18T12:11:45.415Z,95929.38
2022-10-18T12:14:09.300Z,95918.43
2022-10-18T12:16:50.558Z,95909.61
2022-10-18T12:19:02.062Z,95906.92
2022-10-18T12:21:28.431Z,95902.20
2022-10-18T12:23:54.781Z,95903.03
2022-10-18T12:26:21.164Z,95900.91
2022-10-18T12:28:47.529Z,95900.69
2022-10-18T12:31:13.890Z,95898.09
2022-10-18T12:33:40.229Z,95893.52
2022-10-18T12:36:06.585Z,95893.52
2022-10-18T12:38:32.933Z,95885.21
2022-10-18T12:40:59.270Z,95884.55
2022-10-18T12:43:25.622Z,95878.55
2022-10-18T12:45:51.951Z,95879.51
2022-10-18T12:48:18.317Z,95878.78
2022-10-18T12:50:44.660Z,95872.17
2022-10-18T12:53:11.011Z,95866.77
2022-10-18T12:55:37.398Z,95866.77
2022-10-18T12:58:03.786Z,95866.44
2022-10-18T13:00:30.154Z,95865.48
2022-10-18T13:02:56.460Z,95862.09
2022-10-18T13:05:40.929Z,95864.67
2022-10-18T13:07:49.191Z,95863.12
2022-10-18T13:10:15.535Z,95857.34
2022-10-18T13:12:44.079Z,95854.16
2022-10-18T13:15:24.715Z,95851.23
2022-10-18T13:17:36.871Z,95851.56
2022-10-18T13:20:24.454Z,95847.55
2022-10-18T13:22:29.591Z,95844.03
2022-10-18T13:24:55.975Z,95848.28
2022-10-18T13:27:35.557Z,95848.61
2022-10-18T13:29:48.678Z,95837.33
2022-10-18T13:34:41.388Z,95836.51
2022-10-18T13:37:07.735Z,95838.27
2022-10-18T13:39:34.088Z,95829.21
2022-10-18T13:42:00.470Z,95827.22
2022-10-18T13:44:26.810Z,95826.63
2022-10-18T13:46:53.159Z,95817.56
2022-10-18T13:49:19.495Z,95816.87
2022-10-18T13:51:45.827Z,95816.27
2022-10-18T13:54:12.173Z,95814.98
2022-10-18T13:56:38.533Z,95806.89
2022-10-18T13:59:14.120Z,95809.70
2022-10-18T14:01:32.330Z,95801.25
2022-10-18T14:03:58.950Z,95800.52
2022-10-18T14:06:24.969Z,95801.48
2022-10-18T14:08:51.305Z,95800.29
2022-10-18T14:11:17.652Z,95801.48
2022-10-18T14:13:43.995Z,95801.12
2022-10-18T14:16:10.376Z,95797.14
2022-10-18T14:18:36.725Z,95796.30
2022-10-18T14:21:13.252Z,95798.77
2022-10-18T14:23:29.451Z,95795.24
2022-10-18T14:25:55.789Z,95798.53
2022-10-18T14:28:31.350Z,95795.34
2022-10-18T14:30:48.498Z,95795.58
2022-10-18T14:33:14.842Z,95801.45
2022-10-18T14:35:41.190Z,95797.20
2022-10-18T14:38:07.534Z,95793.55
2022-10-18T14:40:33.916Z,95795.08
2022-10-18T14:43:00.245Z,95797.44
2022-10-18T14:45:27.479Z,95792.03
2022-10-18T14:47:52.951Z,95789.20
2022-10-18T14:50:19.294Z,95788.61
2022-10-18T14:52:45.666Z,95779.89
2022-10-18T14:55:12.033Z,95779.23
2022-10-18T14:57:38.431Z,95779.66
2022-10-18T15:00:04.787Z,95781.52
2022-10-18T15:02:31.541Z,95775.05
2022-10-18T15:04:57.539Z,95775.05
2022-10-18T15:07:23.907Z,95777.53
2022-10-18T15:09:50.263Z,95756.81
2022-10-18T15:12:16.629Z,95771.53
2022-10-18T15:14:42.990Z,95748.26
2022-10-18T15:17:09.356Z,95757.80
2022-10-18T15:19:35.723Z,95766.30
2022-10-18T15:24:28.437Z,95761.59
2022-10-18T15:26:54.790Z,95759.00
2022-10-18T15:29:21.216Z,95751.70
2022-10-18T15:31:47.560Z,95750.52
2022-10-18T15:34:13.920Z,95751.61
2022-10-18T15:36:40.323Z,95751.61
2022-10-18T15:39:06.642Z,95746.90
2022-10-18T15:41:32.998Z,95747.83
2022-10-18T15:43:59.357Z,95748.42
2022-10-18T15:46:25.723Z,95744.31
2022-10-18T15:48:52.074Z,95743.48
2022-10-18T15:51:18.443Z,95741.83
2022-10-18T15:53:44.801Z,95744.91
2022-10-18T15:56:11.163Z,95744.91
2022-10-18T15:58:37.547Z,95734.16
2022-10-18T16:01:03.956Z,95747.13
2022-10-18T16:03:30.328Z,95752.07
2022-10-18T16:05:56.707Z,95746.01
2022-10-18T16:08:23.280Z,95765.66
2022-10-18T16:10:49.648Z,95765.66
2022-10-18T16:13:16.076Z,95769.55
2022-10-18T16:15:42.434Z,95773.06
2022-10-18T16:18:08.792Z,95769.64
2022-10-18T16:20:35.193Z,95774.29
2022-10-18T16:23:01.545Z,95770.73
2022-10-18T16:25:27.944Z,95778.93
2022-10-18T16:27:54.301Z,95782.80
2022-10-18T16:30:20.663Z,95777.86
2022-10-18T16:32:47.029Z,95780.58
2022-10-18T16:35:13.392Z,95780.58
2022-10-18T16:37:39.747Z,95783.27
2022-10-18T16:40:06.159Z,95781.51
2022-10-18T16:42:32.731Z,95787.38
2022-10-18T16:44:58.823Z,95774.31
2022-10-18T16:47:25.182Z,95784.33
2022-10-18T16:49:51.548Z,95787.47
2022-10-18T16:52:17.936Z,95776.20
2022-10-18T16:54:44.293Z,95781.97
2022-10-18T16:57:10.727Z,95782.43
2022-10-18T16:59:37.052Z,95788.20
2022-10-18T17:02:03.520Z,95784.65
2022-10-18T17:04:29.821Z,95794.53
2022-10-18T17:06:56.181Z,95791.25
2022-10-18T17:09:22.599Z,95790.98
2022-10-18T17:11:48.945Z,95791.34
2022-10-18T17:14:15.307Z,95782.42
2022-10-18T17:16:41.666Z,95775.12
2022-10-18T17:19:08.031Z,95790.41
2022-10-18T17:21:34.490Z,95789.59
2022-10-18T17:24:00.843Z,95789.59
2022-10-18T17:26:29.040Z,95787.59
2022-10-18T17:28:53.641Z,95779.57
2022-10-18T17:31:19.958Z,95779.57
2022-10-18T17:33:46.334Z,95781.45
2022-10-18T17:36:12.687Z,95781.45
2022-10-18T17:38:39.054Z,95778.05
2022-10-18T17:41:05.409Z,95764.61
2022-10-18T17:43:31.789Z,95780.30
2022-10-18T17:45:58.127Z,95762.15
2022-10-18T17:48:24.493Z,95762.39
2022-10-18T17:50:50.856Z,95762.39
2022-10-18T17:53:17.221Z,95779.69
2022-10-18T17:55:43.572Z,95781.22
2022-10-18T17:58:09.943Z,95753.19
2022-10-18T18:00:36.330Z,95750.00
2022-10-18T18:03:02.682Z,95750.00
2022-10-18T18:05:29.011Z,95770.37
2022-10-18T18:08:01.317Z,95766.62
2022-10-18T18:10:24.550Z,95777.43
2022-10-18T18:12:50.912Z,95768.75
2022-10-18T18:15:17.271Z,95771.44
2022-10-18T18:17:56.602Z,95767.45
2022-10-18T18:20:09.993Z,95756.74
2022-10-18T18:22:39.233Z,95764.61
2022-10-18T18:25:02.730Z,95760.73
2022-10-18T18:27:29.100Z,95764.73
2022-10-18T18:29:55.457Z,95764.73
2022-10-18T18:32:21.820Z,95750.51
2022-10-18T18:34:48.228Z,95763.30
2022-10-18T18:37:14.592Z,95746.35
2022-10-18T18:39:40.956Z,95760.02
2022-10-18T18:42:07.335Z,95760.02
2022-10-18T18:44:33.677Z,95744.14
2022-10-18T18:47:00.143Z,95744.14
2022-10-18T18:49:26.456Z,95749.78
2022-10-18T18:51:52.818Z,95750.37
2022-10-18T18:54:19.177Z,95745.20
2022-10-18T18:56:47.684Z,95745.20
2022-10-18T18:59:14.104Z,95725.30
2022-10-18T19:01:40.573Z,95747.55
2022-10-18T19:04:06.842Z,95748.71
2022-10-18T19:06:33.232Z,95742.00
2022-10-18T19:08:59.715Z,95732.82
2022-10-18T19:11:25.980Z,95732.82
2022-10-18T19:13:52.333Z,95757.52
2022-10-18T19:16:18.703Z,95753.41
2022-10-18T19:18:45.067Z,95752.11
2022-10-18T19:21:11.424Z,95751.75
2022-10-18T19:23:37.789Z,95752.67
2022-10-18T19:26:04.149Z,95755.25
2022-10-18T19:28:30.529Z,95736.55
2022-10-18T19:30:56.891Z,95736.55
2022-10-18T19:33:41.098Z,95755.48
2022-10-18T19:35:49.643Z,95761.02
2022-10-18T19:38:16.001Z,95761.61
2022-10-18T19:40:42.388Z,95761.61
2022-10-18T19:43:08.752Z,95750.67
2022-10-18T19:45:35.141Z,95755.00
2022-10-18T19:48:01.501Z,95755.00
2022-10-18T19:50:27.870Z,95744.77
2022-10-18T19:52:54.217Z,95740.52
2022-10-18T19:55:20.587Z,95740.52
2022-10-18T19:57:46.943Z,95737.67
2022-10-18T20:00:17.327Z,95742.28
2022-10-18T20:02:39.668Z,95727.70
2022-10-18T20:05:06.044Z,95724.42
2022-10-18T20:07:32.398Z,95714.63
2022-10-18T20:09:58.759Z,95714.63
2022-10-18T20:12:25.120Z,95713.80
2022-10-18T20:14:51.479Z,95729.22
2022-10-18T20:17:17.837Z,95720.18
2022-10-18T20:19:44.205Z,95723.45
2022-10-18T20:22:10.648Z,95723.45
2022-10-18T20:24:37.010Z,95720.04
2022-10-18T20:27:03.380Z,95720.04
2022-10-18T20:29:29.733Z,95701.34
2022-10-18T20:31:56.085Z,95703.84
2022-10-18T20:34:22.473Z,95703.84
2022-10-18T20:36:48.830Z,95696.86
2022-10-18T20:39:15.219Z,95708.77
2022-10-18T20:41:41.586Z,95708.77
2022-10-18T20:44:07.937Z,95707.81
2022-10-18T20:46:34.299Z,95713.93
2022-10-18T20:49:00.649Z,95711.11
2022-10-18T20:51:27.025Z,95711.11
2022-10-18T20:53:53.521Z,95711.11
2022-10-18T20:56:19.744Z,95708.99
2022-10-18T20:58:46.100Z,95710.75
2022-10-18T21:01:12.547Z,95699.68
2022-10-18T21:03:38.865Z,95704.38
2022-10-18T21:06:05.264Z,95704.84
2022-10-18T21:08:31.625Z,95704.84
2022-10-18T21:10:57.998Z,95693.81
2022-10-18T21:13:24.363Z,95698.61
2022-10-18T21:18:33.004Z,95698.98
2022-10-18T21:20:59.445Z,95693.81
2022-10-18T21:23:25.747Z,95689.24
2022-10-18T21:25:52.133Z,95680.30
2022-10-18T21:28:18.494Z,95680.30
2022-10-18T21:30:44.850Z,95678.67
2022-10-18T21:35:51.560Z,95668.80
2022-10-18T21:38:17.965Z,95667.97
2022-10-18T21:40:44.366Z,95669.36
2022-10-18T21:43:10.729Z,95652.33
2022-10-18T21:45:37.104Z,95652.33
2022-10-18T21:48:03.475Z,95660.45
2022-10-18T21:50:29.845Z,95661.84
2022-10-18T21:52:56.216Z,95653.63
2022-10-18T21:55:22.589Z,95656.67
2022-10-18T21:57:49.572Z,95650.69
2022-10-18T22:00:15.955Z,95644.72
2022-10-18T22:02:42.322Z,95646.48
2022-10-18T22:05:11.345Z,95645.28
2022-10-18T22:07:35.441Z,95641.05
2022-10-18T22:10:01.457Z,95633.79
2022-10-18T22:12:27.825Z,95632.01
2022-10-18T22:14:54.195Z,95634.25
2022-10-18T22:17:20.548Z,95626.97
2022-10-18T22:19:46.938Z,95626.14
2022-10-18T22:22:13.335Z,95624.48
2022-10-18T22:24:39.709Z,95607.45
2022-10-18T22:27:06.100Z,95607.45
2022-10-18T22:29:32.473Z,95618.16
2022-10-18T22:31:58.837Z,95619.45
2022-10-18T22:34:25.217Z,95605.25
2022-10-18T22:36:51.581Z,95616.50
2022-10-18T22:39:17.947Z,95607.93
2022-10-18T22:41:44.316Z,95607.93
2022-10-18T22:44:10.697Z,95598.56
2022-10-18T22:46:37.069Z,95598.20
2022-10-18T22:49:03.451Z,95600.78
2022-10-18T22:51:29.866Z,95573.06
2022-10-18T22:53:56.297Z,95573.06
2022-10-18T22:56:22.656Z,95580.35
2022-10-18T22:58:49.042Z,95582.47
2022-10-18T23:01:15.421Z,95580.81
2022-10-18T23:03:41.792Z,95567.66
2022-10-18T23:06:08.153Z,95567.66
2022-10-18T23:08:34.528Z,95583.86
2022-10-18T23:11:00.973Z,95576.24
2022-10-18T23:13:27.344Z,95577.17
2022-10-18T23:15:53.708Z,95577.53
2022-10-18T23:18:20.065Z,95577.53
2022-10-18T23:20:46.430Z,95574.59
2022-10-18T23:23:13.840Z,95578.56
2022-10-18T23:25:40.192Z,95575.52
2022-10-18T23:28:06.551Z,95577.76
2022-10-18T23:30:32.940Z,95578.22
2022-10-18T23:32:59.308Z,95579.98
2022-10-18T23:35:25.684Z,95573.16
2022-10-18T23:37:52.075Z,95565.87
2022-10-18T23:40:18.425Z,95574.11
2022-10-18T23:42:44.778Z,95566.38
2022-10-18T23:45:11.114Z,95560.84
2022-10-18T23:47:37.476Z,95557.07
2022-10-18T23:50:03.852Z,95554.02
2022-10-18T23:52:30.226Z,95550.16
2022-10-18T23:54:56.561Z,95545.58
2022-10-18T23:57:22.901Z,95545.12
2022-10-18T23:59:49.252Z,95534.43
